Aviation Digital Data Service (ADDS)

Output produced by METARs form (1311 UTC 17 November 2018)
found at http://aviationweather.gov/metar/data/
 
KOEO 171255Z AUTO 35006KT 10SM OVC027 M06/M10 A3042 RMK AO2 T10571101